Time;durP1;ratioP1;P1;durP2;ratioP2;P2;SDS_P1;SDS_P2;PMS_P1;PMS_P2;Temp;Humidity;BMP_temperature;BMP_pressure;BME280_temperature;BME280_humidity;BME280_pressure;Samples;Min_cycle;Max_cycle;Signal;HPM_P1;HPM_P2
2021/10/05 00:00:01;;;;;;;;;31.33;31.33;21.30;35.50;;;;;;5096738;28;8956;-61
2021/10/05 00:02:27;;;;;;;;;34.67;32.67;21.10;35.90;;;;;;5096556;28;8779;-61
2021/10/05 00:04:53;;;;;;;;;37.33;35.67;21.00;36.20;;;;;;5096755;28;8779;-61
2021/10/05 00:07:19;;;;;;;;;36.67;34.67;21.00;36.60;;;;;;5096844;28;8958;-61
2021/10/05 00:09:45;;;;;;;;;32.67;32.67;21.00;36.60;;;;;;5096448;28;8775;-61
2021/10/05 00:12:11;;;;;;;;;33.67;32.67;21.10;36.70;;;;;;5096370;28;8795;-62
2021/10/05 00:14:37;;;;;;;;;40.75;36.25;21.00;36.90;;;;;;5096354;28;8783;-61
2021/10/05 00:17:03;;;;;;;;;33.67;32.00;21.10;37.10;;;;;;5096341;28;8871;-62
2021/10/05 00:19:28;;;;;;;;;38.75;35.75;21.10;37.20;;;;;;5096315;28;8764;-61
2021/10/05 00:21:54;;;;;;;;;40.50;36.75;21.10;37.00;;;;;;5096271;28;8764;-61
2021/10/05 00:24:20;;;;;;;;;32.00;32.00;21.20;37.10;;;;;;5096479;28;8817;-61
2021/10/05 00:26:46;;;;;;;;;38.67;36.00;21.20;36.90;;;;;;5096446;28;8784;-61
2021/10/05 00:29:13;;;;;;;;;37.25;34.25;21.30;37.10;;;;;;5096402;28;9432;-61
2021/10/05 00:31:39;;;;;;;;;32.67;31.67;21.30;36.80;;;;;;5096239;28;8897;-61
2021/10/05 00:34:04;;;;;;;;;34.33;32.33;21.20;36.90;;;;;;5096107;28;8886;-61
2021/10/05 00:36:30;;;;;;;;;31.33;31.00;21.20;36.90;;;;;;5095415;28;8894;-62
2021/10/05 00:38:56;;;;;;;;;36.67;34.00;21.20;36.90;;;;;;5095843;28;8824;-61
2021/10/05 00:41:22;;;;;;;;;34.67;33.00;21.20;37.10;;;;;;5095929;28;8788;-62
2021/10/05 00:43:49;;;;;;;;;27.67;27.67;21.20;36.90;;;;;;5096054;28;9529;-61
2021/10/05 00:46:15;;;;;;;;;36.67;34.67;21.10;37.10;;;;;;5095792;28;8779;-62
2021/10/05 00:48:41;;;;;;;;;31.67;30.67;21.10;37.20;;;;;;5095972;28;8777;-61
2021/10/05 00:51:07;;;;;;;;;33.33;32.00;21.10;38.10;;;;;;5096034;28;8790;-62
2021/10/05 00:53:34;;;;;;;;;35.00;33.33;21.10;37.40;;;;;;5095611;28;9425;-61
2021/10/05 00:56:00;;;;;;;;;37.67;34.67;21.10;37.30;;;;;;5095754;28;8760;-61
2021/10/05 00:58:25;;;;;;;;;35.00;33.67;21.10;37.50;;;;;;5095781;28;8778;-61
2021/10/05 01:00:51;;;;;;;;;33.67;32.00;21.10;37.40;;;;;;5095580;28;8768;-61
2021/10/05 01:03:17;;;;;;;;;32.67;31.67;21.10;37.20;;;;;;5095766;28;8764;-61
2021/10/05 01:05:43;;;;;;;;;38.00;35.67;21.00;37.30;;;;;;5095687;28;8839;-61
2021/10/05 01:08:09;;;;;;;;;33.00;32.00;21.00;37.20;;;;;;5095838;28;8795;-61
2021/10/05 01:10:36;;;;;;;;;32.67;31.67;21.00;37.20;;;;;;5095397;28;8768;-61
2021/10/05 01:13:01;;;;;;;;;30.67;30.67;21.00;37.40;;;;;;5095572;28;8787;-61
2021/10/05 01:15:29;;;;;;;;;40.25;36.00;21.00;37.50;;;;;;5095373;28;8810;-61
2021/10/05 01:17:56;;;;;;;;;39.50;35.50;20.90;38.00;;;;;;5095298;28;8787;-61
2021/10/05 01:20:22;;;;;;;;;37.67;34.00;20.80;38.40;;;;;;5077326;28;8764;-61
2021/10/05 01:22:48;;;;;;;;;38.33;35.33;20.60;38.50;;;;;;5095167;28;8768;-61
2021/10/05 01:25:16;;;;;;;;;36.67;34.67;20.60;38.70;;;;;;5095194;28;8756;-61
2021/10/05 01:27:50;;;;;;;;;30.00;30.00;20.60;38.60;;;;;;5095457;28;9386;-61
2021/10/05 01:30:18;;;;;;;;;42.50;38.50;20.60;38.40;;;;;;5060703;28;8783;-61
2021/10/05 01:32:44;;;;;;;;;33.75;32.75;20.60;38.30;;;;;;5054841;28;8821;-60
2021/10/05 01:35:11;;;;;;;;;38.75;35.00;20.50;38.20;;;;;;5054710;28;8809;-62
2021/10/05 01:37:37;;;;;;;;;33.50;32.00;20.40;38.10;;;;;;5054736;28;8865;-63
2021/10/05 01:40:05;;;;;;;;;34.67;33.00;20.40;38.30;;;;;;5054693;28;8763;-61
2021/10/05 01:42:31;;;;;;;;;23.00;23.00;20.30;38.50;;;;;;5054831;28;8773;-61
2021/10/05 01:44:57;;;;;;;;;38.00;34.75;20.20;38.90;;;;;;5054757;28;9440;-61
2021/10/05 01:47:23;;;;;;;;;36.50;33.75;20.20;38.90;;;;;;5054356;28;8763;-61
2021/10/05 01:49:49;;;;;;;;;29.33;29.33;20.10;38.70;;;;;;5054389;28;8876;-61
2021/10/05 01:52:14;;;;;;;;;33.75;31.25;20.00;38.80;;;;;;5054301;28;8917;-61
2021/10/05 01:54:40;;;;;;;;;35.50;33.25;19.90;39.10;;;;;;5054635;28;8798;-61
2021/10/05 01:57:06;;;;;;;;;33.00;32.00;19.70;39.40;;;;;;5054225;28;8803;-61
2021/10/05 01:59:32;;;;;;;;;37.00;34.00;19.70;39.70;;;;;;5054219;28;8879;-61
2021/10/05 02:01:58;;;;;;;;;37.50;33.75;19.50;39.90;;;;;;5054217;28;8783;-61
2021/10/05 02:04:24;;;;;;;;;31.75;31.75;19.60;40.00;;;;;;5053203;28;8787;-61
2021/10/05 02:06:50;;;;;;;;;33.50;32.25;19.40;40.20;;;;;;5054386;28;8802;-61
2021/10/05 02:09:16;;;;;;;;;38.75;35.50;19.30;40.60;;;;;;5054398;28;8778;-60
2021/10/05 02:11:41;;;;;;;;;35.00;32.50;19.20;40.90;;;;;;5054112;28;8759;-61
2021/10/05 02:14:08;;;;;;;;;39.00;35.75;19.10;41.00;;;;;;5054027;28;8787;-60
2021/10/05 02:16:35;;;;;;;;;32.25;31.25;19.00;41.10;;;;;;5054162;28;8785;-60
2021/10/05 02:19:01;;;;;;;;;41.75;36.75;19.00;41.50;;;;;;5053945;28;8771;-60
2021/10/05 02:21:27;;;;;;;;;41.25;37.50;19.10;41.50;;;;;;5054057;28;8775;-60
2021/10/05 02:26:37;;;;;;;;;48.25;40.75;19.10;41.00;;;;;;5054109;28;9377;-60
2021/10/05 02:29:04;;;;;;;;;42.50;37.25;19.20;40.80;;;;;;5053871;28;8796;-59
2021/10/05 02:31:30;;;;;;;;;49.25;41.50;19.20;40.80;;;;;;5054038;28;8751;-60
2021/10/05 02:33:56;;;;;;;;;46.00;39.25;19.30;40.70;;;;;;5053882;28;8876;-60
2021/10/05 02:36:22;;;;;;;;;42.00;37.25;19.30;40.60;;;;;;5054086;28;8771;-60
2021/10/05 02:38:48;;;;;;;;;42.50;38.25;19.40;40.60;;;;;;5053837;28;8794;-59
2021/10/05 02:41:14;;;;;;;;;31.25;31.25;19.30;40.50;;;;;;5054230;28;8836;-60
2021/10/05 02:43:39;;;;;;;;;37.25;34.50;19.30;40.70;;;;;;5054222;28;9481;-60
2021/10/05 02:46:05;;;;;;;;;38.50;35.00;19.30;40.80;;;;;;5054234;28;8874;-60
2021/10/05 02:48:31;;;;;;;;;41.75;36.75;19.20;40.80;;;;;;5054122;28;8782;-60
2021/10/05 02:50:57;;;;;;;;;35.25;34.00;19.10;40.80;;;;;;5054151;28;8828;-59
2021/10/05 02:53:23;;;;;;;;;38.50;36.00;19.10;41.00;;;;;;5053745;28;8810;-59
2021/10/05 02:55:49;;;;;;;;;40.25;36.00;19.20;41.10;;;;;;5053804;28;8759;-60
2021/10/05 02:58:16;;;;;;;;;41.25;37.00;19.20;41.00;;;;;;5054045;28;8751;-60
2021/10/05 03:00:43;;;;;;;;;38.00;35.00;19.20;40.80;;;;;;5056019;28;8771;-60
2021/10/05 03:03:09;;;;;;;;;42.25;37.00;19.30;40.80;;;;;;5057518;28;8897;-60
2021/10/05 03:05:35;;;;;;;;;46.25;40.25;19.20;40.70;;;;;;5057751;28;9550;-60
2021/10/05 03:08:07;;;;;;;;;35.00;33.00;19.10;41.20;;;;;;5057742;28;8809;-61
2021/10/05 03:10:34;;;;;;;;;35.50;33.50;19.10;41.10;;;;;;5056460;28;8802;-61
2021/10/05 03:13:00;;;;;;;;;41.50;36.50;19.00;41.50;;;;;;5057553;28;8845;-60
2021/10/05 03:15:26;;;;;;;;;43.00;39.00;19.10;41.50;;;;;;5057570;28;8791;-61
2021/10/05 03:17:52;;;;;;;;;35.50;33.75;19.10;41.30;;;;;;5057346;28;9385;-61
2021/10/05 03:20:17;;;;;;;;;43.00;38.00;19.10;41.50;;;;;;5056570;28;8771;-61
2021/10/05 03:22:43;;;;;;;;;41.50;36.75;18.90;41.80;;;;;;5057482;28;8791;-60
2021/10/05 03:25:09;;;;;;;;;40.50;36.75;18.90;42.00;;;;;;5057453;28;8763;-61
2021/10/05 03:27:35;;;;;;;;;36.75;33.75;18.90;42.00;;;;;;5057092;28;8786;-61
2021/10/05 03:30:06;;;;;;;;;42.75;37.50;18.90;42.10;;;;;;5057225;28;8767;-61
2021/10/05 03:32:32;;;;;;;;;36.75;34.00;18.80;42.00;;;;;;5057216;28;8807;-61
2021/10/05 03:34:58;;;;;;;;;41.00;37.25;18.90;42.00;;;;;;5057027;28;8869;-61
2021/10/05 03:37:23;;;;;;;;;35.25;33.50;19.00;41.90;;;;;;5056695;28;8811;-61
2021/10/05 03:39:50;;;;;;;;;40.75;36.50;19.00;41.60;;;;;;5077070;28;8778;-61
2021/10/05 03:42:16;;;;;;;;;40.00;37.00;18.80;41.80;;;;;;5086058;28;8778;-61
2021/10/05 03:44:42;;;;;;;;;37.75;34.50;18.80;42.10;;;;;;5076701;28;8850;-61
2021/10/05 03:47:08;;;;;;;;;42.00;38.00;18.90;42.00;;;;;;5093216;28;8779;-61
2021/10/05 03:49:34;;;;;;;;;32.00;32.00;19.00;41.90;;;;;;5096944;28;8774;-61
2021/10/05 03:51:59;;;;;;;;;41.75;37.50;19.10;41.70;;;;;;5096841;28;8768;-61
2021/10/05 03:54:25;;;;;;;;;42.00;37.25;19.20;41.30;;;;;;5079286;28;8784;-61
2021/10/05 03:56:51;;;;;;;;;38.25;34.75;19.30;41.10;;;;;;5096863;28;8776;-60
2021/10/05 03:59:19;;;;;;;;;31.33;31.33;19.30;41.30;;;;;;5096840;28;8760;-60
2021/10/05 04:01:45;;;;;;;;;36.00;34.00;19.30;41.20;;;;;;5096988;28;9389;-60
2021/10/05 04:04:11;;;;;;;;;31.33;31.33;19.30;41.20;;;;;;5096785;28;8771;-60
2021/10/05 04:06:37;;;;;;;;;35.75;33.50;19.30;41.40;;;;;;5096805;28;8885;-61
2021/10/05 04:09:05;;;;;;;;;36.50;34.00;19.30;41.50;;;;;;5096902;28;8752;-60
2021/10/05 04:11:35;;;;;;;;;34.67;33.00;19.30;41.40;;;;;;5095693;28;8841;-60
2021/10/05 04:14:02;;;;;;;;;37.75;35.00;19.30;41.40;;;;;;5096474;28;8804;-60
2021/10/05 04:16:28;;;;;;;;;35.67;34.67;19.30;41.50;;;;;;5096433;28;8852;-60
2021/10/05 04:18:54;;;;;;;;;41.50;36.50;19.20;41.80;;;;;;5096309;28;8776;-61
2021/10/05 04:21:20;;;;;;;;;37.00;35.00;19.20;43.00;;;;;;5096252;28;8767;-61
2021/10/05 04:23:46;;;;;;;;;34.75;32.50;19.20;42.10;;;;;;5096352;28;8783;-60
2021/10/05 04:26:12;;;;;;;;;36.50;33.50;19.20;41.80;;;;;;5096590;28;8770;-62
2021/10/05 04:28:38;;;;;;;;;34.00;33.50;19.20;41.90;;;;;;5096491;28;8772;-60
2021/10/05 04:31:04;;;;;;;;;38.25;36.50;19.20;41.70;;;;;;5096095;28;8792;-60
2021/10/05 04:33:30;;;;;;;;;47.50;41.50;19.10;41.90;;;;;;5096273;28;8792;-61
2021/10/05 04:35:56;;;;;;;;;44.25;39.75;19.10;41.70;;;;;;5095973;28;8853;-61
2021/10/05 04:38:22;;;;;;;;;40.00;37.00;18.90;41.70;;;;;;5094590;28;8827;-62
2021/10/05 04:40:48;;;;;;;;;43.75;39.50;18.60;41.80;;;;;;5083402;28;8763;-62
2021/10/05 04:43:14;;;;;;;;;41.50;38.00;18.40;42.20;;;;;;5085607;28;8828;-62
2021/10/05 04:45:40;;;;;;;;;37.75;36.00;18.40;42.60;;;;;;5080300;28;8770;-61
2021/10/05 04:48:08;;;;;;;;;39.25;36.25;18.60;42.40;;;;;;5058691;28;9606;-60
2021/10/05 04:50:35;;;;;;;;;41.50;37.75;18.70;42.00;;;;;;5079962;28;8811;-60
2021/10/05 04:53:01;;;;;;;;;38.75;35.25;18.80;41.60;;;;;;5089309;28;8797;-59
2021/10/05 04:55:27;;;;;;;;;36.25;34.25;18.60;41.60;;;;;;5083680;28;8798;-59
2021/10/05 04:57:52;;;;;;;;;42.75;37.75;18.60;41.80;;;;;;5095719;28;8772;-59
2021/10/05 05:00:18;;;;;;;;;40.00;36.50;18.60;41.80;;;;;;5095526;28;8776;-60
2021/10/05 05:02:44;;;;;;;;;41.75;36.75;18.50;42.10;;;;;;5095429;28;8768;-59
2021/10/05 05:05:10;;;;;;;;;36.75;35.00;18.40;42.40;;;;;;5077279;28;8865;-61
2021/10/05 05:07:36;;;;;;;;;38.75;36.00;18.50;42.50;;;;;;5075032;28;8798;-62
2021/10/05 05:10:04;;;;;;;;;46.00;41.25;18.50;42.60;;;;;;5075407;28;8774;-63
2021/10/05 05:12:30;;;;;;;;;45.00;39.75;18.60;42.60;;;;;;5074902;28;8790;-62
2021/10/05 05:14:57;;;;;;;;;39.75;36.75;18.80;42.20;;;;;;5057267;28;8800;-62
2021/10/05 05:17:23;;;;;;;;;41.75;36.75;18.90;41.90;;;;;;5075139;28;8792;-63
2021/10/05 05:19:48;;;;;;;;;41.25;37.50;19.00;41.60;;;;;;5074907;28;8885;-62
2021/10/05 05:22:15;;;;;;;;;36.50;34.25;19.10;41.60;;;;;;5074909;28;8861;-63
2021/10/05 05:24:40;;;;;;;;;35.75;33.75;19.10;41.50;;;;;;5075116;28;8774;-62
2021/10/05 05:27:07;;;;;;;;;42.00;37.00;19.20;41.30;;;;;;5074841;28;8796;-61
2021/10/05 05:29:32;;;;;;;;;42.25;37.25;19.10;41.20;;;;;;5075008;28;9576;-61
2021/10/05 05:31:58;;;;;;;;;43.00;38.00;19.20;41.20;;;;;;5074944;28;8746;-61
2021/10/05 05:34:26;;;;;;;;;44.75;39.75;19.10;41.20;;;;;;5074786;28;8767;-62
2021/10/05 05:36:52;;;;;;;;;40.00;36.25;18.90;41.50;;;;;;5074615;28;8832;-61
2021/10/05 05:39:18;;;;;;;;;43.25;38.00;19.00;41.70;;;;;;5074437;28;8809;-61
2021/10/05 05:41:45;;;;;;;;;42.25;38.00;19.10;41.60;;;;;;5049005;28;8775;-61
2021/10/05 05:44:13;;;;;;;;;41.25;38.00;19.20;41.40;;;;;;5053307;28;8803;-61
2021/10/05 05:46:39;;;;;;;;;44.50;38.75;19.30;41.20;;;;;;5036809;28;8776;-61
2021/10/05 05:49:05;;;;;;;;;43.50;38.00;19.40;40.90;;;;;;5054955;28;9572;-61
2021/10/05 05:51:31;;;;;;;;;40.00;35.75;19.50;40.80;;;;;;5054161;28;8787;-61
2021/10/05 05:53:56;;;;;;;;;38.00;35.00;19.50;40.60;;;;;;5054338;28;8925;-61
2021/10/05 05:56:22;;;;;;;;;36.75;33.50;19.40;40.70;;;;;;5054375;28;8760;-61
2021/10/05 05:58:49;;;;;;;;;41.50;36.50;19.40;40.90;;;;;;5054283;28;8764;-61
2021/10/05 06:01:16;;;;;;;;;42.50;37.50;19.40;41.10;;;;;;5054267;28;8772;-62
2021/10/05 06:03:42;;;;;;;;;46.50;40.75;19.50;41.10;;;;;;5054551;28;8858;-61
2021/10/05 06:06:07;;;;;;;;;36.75;35.00;19.70;40.90;;;;;;5052843;28;8883;-61
2021/10/05 06:08:33;;;;;;;;;38.00;35.25;19.50;40.90;;;;;;5054578;28;8830;-61
2021/10/05 06:10:59;;;;;;;;;46.00;40.00;19.50;41.10;;;;;;5054243;28;8862;-61
2021/10/05 06:13:25;;;;;;;;;48.25;41.50;19.60;41.00;;;;;;5054032;28;8906;-61
2021/10/05 06:15:51;;;;;;;;;43.75;39.50;19.70;41.00;;;;;;5054181;28;8768;-61
2021/10/05 06:18:17;;;;;;;;;47.00;40.75;19.80;40.70;;;;;;5054121;28;8800;-61
2021/10/05 06:20:43;;;;;;;;;45.25;40.50;19.80;40.60;;;;;;5053891;28;8874;-61
2021/10/05 06:23:08;;;;;;;;;37.50;35.25;19.80;40.50;;;;;;5054044;28;8981;-61
2021/10/05 06:25:40;;;;;;;;;42.25;37.00;19.70;40.30;;;;;;5054033;28;8788;-61
2021/10/05 06:28:07;;;;;;;;;44.75;39.00;19.60;40.80;;;;;;5054099;28;8882;-61
2021/10/05 06:30:32;;;;;;;;;41.25;36.50;19.70;41.90;;;;;;5054333;28;8910;-61
2021/10/05 06:32:58;;;;;;;;;41.25;37.00;19.50;41.10;;;;;;5053970;28;8788;-61
2021/10/05 06:35:28;;;;;;;;;42.50;37.25;19.70;41.40;;;;;;5055214;28;8886;-61
2021/10/05 06:37:55;;;;;;;;;40.75;37.00;19.60;41.30;;;;;;5057771;28;8820;-61
2021/10/05 06:40:29;;;;;;;;;37.00;35.25;19.70;41.30;;;;;;5058178;28;8784;-61
2021/10/05 06:42:55;;;;;;;;;36.50;32.75;19.60;41.30;;;;;;5057962;28;8764;-61
2021/10/05 06:45:21;;;;;;;;;40.25;37.00;19.60;41.60;;;;;;5057809;28;8768;-62
2021/10/05 06:47:47;;;;;;;;;42.00;37.50;19.80;41.50;;;;;;5057977;28;8772;-62
2021/10/05 06:50:14;;;;;;;;;43.50;37.75;20.00;41.30;;;;;;5057509;28;8888;-61
2021/10/05 06:52:41;;;;;;;;;41.00;36.75;19.90;40.80;;;;;;5056991;28;8819;-62
2021/10/05 06:55:07;;;;;;;;;43.00;37.00;19.90;40.80;;;;;;5057598;28;9479;-62
2021/10/05 06:57:33;;;;;;;;;44.75;38.75;19.90;40.90;;;;;;5057342;28;8764;-62
2021/10/05 06:59:59;;;;;;;;;40.00;36.00;19.90;41.20;;;;;;5057745;28;8783;-62
2021/10/05 07:02:25;;;;;;;;;45.50;39.50;20.10;41.00;;;;;;5057724;28;9430;-62
2021/10/05 07:04:51;;;;;;;;;41.50;36.50;20.20;40.50;;;;;;5057442;28;8780;-62
2021/10/05 07:07:17;;;;;;;;;42.00;37.75;20.40;40.40;;;;;;5056336;28;8812;-62
2021/10/05 07:09:42;;;;;;;;;41.25;38.00;20.50;40.10;;;;;;5057330;28;8861;-62
2021/10/05 07:12:08;;;;;;;;;38.75;35.00;20.60;39.70;;;;;;5057261;28;8784;-62
2021/10/05 07:14:34;;;;;;;;;42.00;37.00;20.00;40.70;;;;;;5057299;28;8761;-62
2021/10/05 07:17:01;;;;;;;;;38.75;35.75;20.00;40.40;;;;;;5057109;28;8775;-62
2021/10/05 07:19:27;;;;;;;;;38.00;36.25;20.30;40.50;;;;;;5057143;28;8788;-62
2021/10/05 07:21:53;;;;;;;;;35.50;33.00;20.30;39.80;;;;;;5057104;28;8760;-62
2021/10/05 07:24:19;;;;;;;;;37.00;35.00;20.20;39.80;;;;;;5057308;28;8922;-62
2021/10/05 07:26:45;;;;;;;;;43.00;37.00;20.30;40.10;;;;;;5057267;28;8878;-62
2021/10/05 07:29:11;;;;;;;;;43.50;38.75;20.50;39.60;;;;;;5057017;28;9398;-62
2021/10/05 07:31:36;;;;;;;;;44.25;38.50;20.50;39.60;;;;;;5057012;28;8773;-62
2021/10/05 07:34:03;;;;;;;;;34.75;32.75;20.70;39.50;;;;;;5056945;28;9516;-62
2021/10/05 07:36:30;;;;;;;;;37.25;36.00;20.90;39.50;;;;;;5056913;28;8780;-62
2021/10/05 07:38:55;;;;;;;;;41.33;37.67;21.10;39.00;;;;;;5054929;28;8815;-62
2021/10/05 07:41:21;;;;;;;;;37.00;35.25;20.80;38.70;;;;;;5057068;28;8779;-62
2021/10/05 07:43:47;;;;;;;;;34.67;33.67;20.70;38.90;;;;;;5056989;28;8849;-62
2021/10/05 07:46:16;;;;;;;;;31.67;31.67;20.70;39.10;;;;;;5056524;28;8776;-62
2021/10/05 07:48:42;;;;;;;;;38.67;35.67;20.90;40.00;;;;;;5057007;28;9442;-62
2021/10/05 07:51:08;;;;;;;;;31.33;31.33;20.80;38.60;;;;;;5057041;28;8874;-62
2021/10/05 07:53:35;;;;;;;;;34.00;32.00;21.00;39.00;;;;;;5056544;28;8788;-64
2021/10/05 07:56:02;;;;;;;;;34.67;33.33;21.00;38.40;;;;;;5056958;28;9544;-62
2021/10/05 07:58:28;;;;;;;;;35.33;33.67;21.40;38.20;;;;;;5056510;28;8782;-62
2021/10/05 08:00:54;;;;;;;;;31.00;30.33;21.60;37.60;;;;;;5056300;28;8784;-63
2021/10/05 08:03:20;;;;;;;;;32.00;32.00;21.60;37.60;;;;;;5056562;28;8752;-62
2021/10/05 08:05:46;;;;;;;;;30.33;30.33;21.60;37.30;;;;;;5038685;28;8878;-62
2021/10/05 08:08:12;;;;;;;;;34.00;33.00;21.80;37.50;;;;;;5056811;28;8861;-62
2021/10/05 08:10:41;;;;;;;;;35.00;33.00;22.00;37.50;;;;;;5056456;28;8752;-63
2021/10/05 08:13:08;;;;;;;;;34.67;33.33;21.90;37.30;;;;;;5056240;28;8919;-63
2021/10/05 08:15:35;;;;;;;;;30.67;30.67;22.10;37.20;;;;;;5056157;28;8763;-63
2021/10/05 08:18:01;;;;;;;;;34.00;32.67;22.40;36.90;;;;;;5056097;28;8783;-63
2021/10/05 08:20:28;;;;;;;;;36.00;34.00;22.60;36.30;;;;;;5055966;28;8792;-62
2021/10/05 08:22:55;;;;;;;;;32.33;31.33;22.60;36.10;;;;;;5056207;28;9393;-63
2021/10/05 08:25:21;;;;;;;;;35.67;32.33;22.70;35.80;;;;;;5056168;28;8914;-62
2021/10/05 08:27:47;;;;;;;;;31.67;31.00;22.80;35.20;;;;;;5055796;28;8791;-63
2021/10/05 08:30:14;;;;;;;;;31.33;31.33;22.90;35.00;;;;;;5055878;28;8772;-64
2021/10/05 08:32:41;;;;;;;;;31.33;31.33;22.90;34.30;;;;;;5056129;28;8792;-62
2021/10/05 08:35:07;;;;;;;;;32.33;30.67;23.00;34.40;;;;;;5056034;28;8802;-62
2021/10/05 08:37:33;;;;;;;;;37.00;35.33;23.10;34.00;;;;;;5055973;28;8799;-63
2021/10/05 08:39:59;;;;;;;;;32.33;32.00;23.20;33.70;;;;;;5055674;28;8756;-62
2021/10/05 08:42:25;;;;;;;;;33.33;32.33;23.40;33.40;;;;;;5055488;28;8764;-62
2021/10/05 08:44:52;;;;;;;;;35.67;33.67;23.50;32.70;;;;;;5055449;28;8740;-62
2021/10/05 08:47:19;;;;;;;;;32.00;31.00;23.60;32.70;;;;;;5055542;28;8783;-63
2021/10/05 08:49:45;;;;;;;;;33.33;32.33;23.70;32.20;;;;;;5055387;28;8776;-63
2021/10/05 08:52:13;;;;;;;;;31.33;31.00;23.60;32.40;;;;;;5055613;28;8744;-63
2021/10/05 08:54:40;;;;;;;;;30.33;30.33;23.50;32.50;;;;;;5055372;28;8811;-62
2021/10/05 08:57:06;;;;;;;;;30.67;30.67;23.70;32.60;;;;;;5055154;28;8782;-63
2021/10/05 08:59:32;;;;;;;;;28.67;28.67;23.90;31.30;;;;;;5055076;28;8767;-62
2021/10/05 09:01:58;;;;;;;;;28.67;28.67;23.80;31.50;;;;;;5055316;28;8772;-62
2021/10/05 09:04:24;;;;;;;;;31.33;31.33;24.10;31.20;;;;;;5055382;28;8790;-63
2021/10/05 09:06:54;;;;;;;;;23.67;23.67;24.20;30.70;;;;;;5055003;28;8799;-63
2021/10/05 09:09:21;;;;;;;;;31.00;31.00;24.10;30.40;;;;;;5054350;28;8780;-63
2021/10/05 09:11:51;;;;;;;;;28.33;28.33;24.10;30.30;;;;;;5055380;28;8807;-62
2021/10/05 09:14:17;;;;;;;;;28.00;28.00;24.10;30.30;;;;;;5055039;28;8888;-62
2021/10/05 09:16:43;;;;;;;;;22.67;22.67;24.40;30.40;;;;;;5054953;28;8780;-63
2021/10/05 09:19:13;;;;;;;;;25.00;25.00;24.70;29.90;;;;;;5055205;28;8786;-62
2021/10/05 09:21:42;;;;;;;;;20.67;20.67;24.70;29.50;;;;;;5054864;28;8799;-62
2021/10/05 09:24:14;;;;;;;;;18.67;18.67;24.60;29.00;;;;;;5054934;28;8772;-62
2021/10/05 09:26:52;;;;;;;;;23.33;23.33;24.70;29.10;;;;;;5054835;28;8789;-62
2021/10/05 09:29:22;;;;;;;;;25.67;25.67;25.00;29.10;;;;;;5055033;28;8764;-61
2021/10/05 09:31:49;;;;;;;;;30.00;30.00;25.30;29.80;;;;;;5054719;28;8788;-62
2021/10/05 09:34:16;;;;;;;;;18.00;18.00;25.40;28.50;;;;;;5054564;28;8869;-62
2021/10/05 09:36:42;;;;;;;;;21.00;21.00;25.70;28.30;;;;;;5054534;28;8783;-63
2021/10/05 09:39:08;;;;;;;;;20.67;20.67;25.60;27.90;;;;;;5054327;28;8823;-63
2021/10/05 09:41:34;;;;;;;;;23.33;23.33;25.60;27.70;;;;;;5054341;28;8806;-63
2021/10/05 09:44:03;;;;;;;;;21.33;21.33;25.70;28.20;;;;;;5054626;28;8760;-63
2021/10/05 09:46:30;;;;;;;;;24.33;23.33;26.00;27.90;;;;;;5054511;28;8776;-63
2021/10/05 09:49:06;;;;;;;;;23.33;23.33;25.90;27.20;;;;;;5054581;28;8870;-63
2021/10/05 09:51:33;;;;;;;;;20.00;20.00;25.90;27.00;;;;;;5054384;28;8776;-63
2021/10/05 09:53:59;;;;;;;;;19.67;19.67;26.20;27.40;;;;;;5054545;28;8787;-63
2021/10/05 09:56:30;;;;;;;;;24.00;24.00;26.40;27.40;;;;;;5054552;28;8744;-62
2021/10/05 09:58:57;;;;;;;;;17.00;17.00;26.50;26.30;;;;;;5054315;28;8772;-63
2021/10/05 10:01:25;;;;;;;;;31.33;30.67;26.50;26.20;;;;;;5054340;28;8772;-63
2021/10/05 10:03:52;;;;;;;;;25.67;25.67;26.60;26.30;;;;;;5054484;28;8760;-63
2021/10/05 10:06:19;;;;;;;;;31.00;30.00;26.80;25.90;;;;;;5054260;28;8752;-62
2021/10/05 10:08:46;;;;;;;;;37.33;34.33;27.10;25.60;;;;;;5054121;28;8776;-63
2021/10/05 10:11:12;;;;;;;;;42.00;37.33;27.20;25.60;;;;;;5053938;28;8783;-63
2021/10/05 10:13:40;;;;;;;;;43.33;37.67;27.60;24.90;;;;;;5054234;28;9470;-63
2021/10/05 10:16:07;;;;;;;;;57.75;47.75;28.00;24.70;;;;;;5054156;28;8795;-63
2021/10/05 10:18:33;;;;;;;;;40.00;36.00;28.30;23.90;;;;;;5054357;28;8748;-63
2021/10/05 10:21:06;;;;;;;;;28.67;28.67;28.40;23.60;;;;;;5054056;28;8794;-62
2021/10/05 10:23:34;;;;;;;;;20.00;20.00;28.40;23.00;;;;;;5053994;28;8744;-63
2021/10/05 10:26:05;;;;;;;;;21.67;21.67;28.60;22.70;;;;;;5054041;28;8798;-63
2021/10/05 10:28:35;;;;;;;;;16.67;16.67;28.90;22.60;;;;;;5054190;28;8760;-63
2021/10/05 10:31:05;;;;;;;;;21.33;20.00;28.80;22.50;;;;;;5053981;28;8756;-63
2021/10/05 10:33:46;;;;;;;;;23.00;22.00;29.10;22.50;;;;;;5054058;28;11494;-63
2021/10/05 10:36:13;;;;;;;;;20.67;20.67;28.90;21.80;;;;;;5053905;28;11467;-61
2021/10/05 10:38:43;;;;;;;;;20.67;20.67;29.00;22.00;;;;;;5053791;28;8939;-62
2021/10/05 10:41:16;;;;;;;;;16.67;16.67;29.50;22.20;;;;;;5053897;28;8775;-63
2021/10/05 10:44:02;;;;;;;;;20.67;20.67;29.40;21.70;;;;;;5053642;28;11465;-62
2021/10/05 10:46:34;;;;;;;;;19.33;19.33;29.90;21.30;;;;;;5053702;28;11485;-62
2021/10/05 10:49:01;;;;;;;;;10.67;10.67;30.30;20.80;;;;;;5054001;28;11542;-62
2021/10/05 10:51:32;;;;;;;;;19.00;19.00;30.60;20.40;;;;;;5053560;28;11492;-62
2021/10/05 10:54:00;;;;;;;;;16.00;16.00;31.00;20.20;;;;;;5053525;28;11487;-63
2021/10/05 10:56:34;;;;;;;;;20.33;19.67;30.80;19.60;;;;;;5053870;28;11485;-62
2021/10/05 10:59:05;;;;;;;;;21.33;21.33;30.90;19.80;;;;;;5053551;28;11456;-62
2021/10/05 11:01:45;;;;;;;;;16.00;16.00;30.70;19.70;;;;;;5053569;28;11489;-63
2021/10/05 11:04:13;;;;;;;;;14.75;14.75;30.90;19.50;;;;;;5053512;28;11459;-63
2021/10/05 11:06:43;;;;;;;;;17.75;17.75;33.90;18.10;;;;;;5053562;28;11458;-63
2021/10/05 11:09:08;;;;;;;;;16.00;16.00;34.80;15.90;;;;;;5053807;28;11443;-63
2021/10/05 11:11:38;;;;;;;;;16.75;16.75;35.30;15.00;;;;;;5053545;28;11463;-63
2021/10/05 11:14:08;;;;;;;;;16.25;16.25;36.20;15.10;;;;;;5053871;28;8803;-63
2021/10/05 11:16:36;;;;;;;;;22.33;22.33;37.70;14.70;;;;;;5053717;28;11564;-63
2021/10/05 11:19:06;;;;;;;;;21.67;21.67;38.80;14.50;;;;;;5053385;28;12122;-61
2021/10/05 11:21:34;;;;;;;;;14.33;14.33;41.30;13.00;;;;;;5037961;28;11454;-62
2021/10/05 11:24:00;;;;;;;;;16.67;16.67;41.40;11.90;;;;;;5057092;28;8776;-62
2021/10/05 11:26:34;;;;;;;;;15.67;15.67;41.30;12.10;;;;;;5057220;28;11451;-61
2021/10/05 11:29:02;;;;;;;;;16.00;16.00;43.30;12.10;;;;;;5056991;28;8780;-61
2021/10/05 11:31:39;;;;;;;;;17.75;17.75;44.00;10.70;;;;;;5056851;28;11478;-62
2021/10/05 11:34:04;;;;;;;;;18.00;18.00;45.40;11.00;;;;;;5057019;28;11494;-62
2021/10/05 11:36:32;;;;;;;;;19.00;19.00;44.30;10.00;;;;;;5056856;28;12152;-62
2021/10/05 11:38:58;;;;;;;;;16.25;16.25;43.60;10.40;;;;;;5056713;28;8958;-62
2021/10/05 11:41:38;;;;;;;;;20.67;20.67;44.90;10.70;;;;;;5056607;28;11497;-62
2021/10/05 11:44:18;;;;;;;;;19.67;19.67;45.10;10.10;;;;;;5056917;28;8752;-62
2021/10/05 11:46:56;;;;;;;;;19.00;19.00;44.10;9.50;;;;;;5056795;28;12510;-62
2021/10/05 11:49:24;;;;;;;;;22.33;22.33;43.50;9.80;;;;;;5038882;28;11469;-62
2021/10/05 11:51:52;;;;;;;;;20.33;20.33;45.40;10.40;;;;;;5056642;28;8760;-62
2021/10/05 11:54:34;;;;;;;;;17.67;17.67;46.20;9.30;;;;;;5056287;28;11474;-61
2021/10/05 11:57:08;;;;;;;;;15.00;15.00;43.40;9.50;;;;;;5056478;28;11475;-62
2021/10/05 11:59:34;;;;;;;;;18.00;18.00;44.40;10.10;;;;;;5056223;28;11443;-62
2021/10/05 12:02:12;;;;;;;;;13.00;13.00;45.70;9.50;;;;;;5056223;28;11454;-62
2021/10/05 12:04:40;;;;;;;;;14.75;14.75;46.30;9.30;;;;;;5056031;28;11459;-63
2021/10/05 12:07:08;;;;;;;;;13.75;13.75;46.20;8.20;;;;;;5055839;28;11470;-61
2021/10/05 12:09:35;;;;;;;;;15.00;15.00;47.20;8.60;;;;;;5056190;28;11434;-62
2021/10/05 12:12:13;;;;;;;;;15.00;15.00;45.20;8.70;;;;;;5056270;28;12106;-62
2021/10/05 12:15:03;;;;;;;;;13.00;13.00;43.50;9.20;;;;;;5055947;28;11475;-62
2021/10/05 12:17:32;;;;;;;;;15.00;15.00;45.40;9.80;;;;;;5056215;28;11539;-63
2021/10/05 12:20:04;;;;;;;;;12.25;12.25;46.20;9.00;;;;;;5055997;28;12170;-63
2021/10/05 12:22:33;;;;;;;;;14.25;14.25;46.60;8.60;;;;;;5055805;28;11466;-63
2021/10/05 12:25:13;;;;;;;;;14.75;14.75;45.70;8.80;;;;;;5055758;28;11455;-63
2021/10/05 12:27:41;;;;;;;;;16.00;16.00;46.60;9.40;;;;;;5055773;28;11439;-62
2021/10/05 12:30:36;;;;;;;;;16.00;15.75;47.50;8.90;;;;;;5055666;28;11561;-62
2021/10/05 12:33:11;;;;;;;;;18.00;18.00;49.20;8.90;;;;;;4993184;28;11597;-63
2021/10/05 12:35:40;;;;;;;;;19.50;19.50;49.00;8.60;;;;;;4994173;28;11513;-62
2021/10/05 12:38:12;;;;;;;;;17.50;17.50;49.40;8.40;;;;;;4993764;28;11644;-63